createdAt,value
2018-07-16T00:00:25.763Z,2.50
2018-07-16T00:02:54.620Z,2.23
2018-07-16T00:05:23.112Z,2.63
2018-07-16T00:07:51.326Z,2.60
2018-07-16T00:10:19.541Z,2.70
2018-07-16T00:12:47.742Z,3.07
2018-07-16T00:15:15.941Z,2.67
2018-07-16T00:17:44.176Z,2.87
2018-07-16T00:20:12.365Z,2.80
2018-07-16T00:22:40.564Z,2.77
2018-07-16T00:25:08.771Z,2.90
2018-07-16T00:27:37.000Z,2.93
2018-07-16T00:30:05.521Z,2.80
2018-07-16T00:32:33.717Z,2.87
2018-07-16T00:35:01.945Z,3.30
2018-07-16T00:37:30.124Z,2.90
2018-07-16T00:39:58.304Z,3.07
2018-07-16T00:42:26.492Z,3.60
2018-07-16T00:44:54.691Z,3.10
2018-07-16T00:47:22.915Z,3.30
2018-07-16T00:49:51.118Z,3.70
2018-07-16T00:52:19.283Z,3.13
2018-07-16T00:54:47.465Z,3.17
2018-07-16T00:57:15.681Z,3.27
2018-07-16T00:59:43.917Z,3.13
2018-07-16T01:02:12.082Z,3.03
2018-07-16T01:04:40.298Z,2.90
2018-07-16T01:07:08.485Z,3.20
2018-07-16T01:09:36.678Z,3.10
2018-07-16T01:12:04.887Z,2.97
2018-07-16T01:14:33.066Z,3.40
2018-07-16T01:17:01.261Z,3.27
2018-07-16T01:19:29.471Z,3.27
2018-07-16T01:21:57.659Z,3.10
2018-07-16T01:24:25.814Z,3.67
2018-07-16T01:26:54.043Z,3.37
2018-07-16T01:29:22.237Z,3.07
2018-07-16T01:31:50.423Z,3.20
2018-07-16T01:34:18.640Z,3.60
2018-07-16T01:36:46.824Z,3.70
2018-07-16T01:39:15.033Z,3.50
2018-07-16T01:41:43.249Z,3.50
2018-07-16T01:44:11.427Z,3.73
2018-07-16T01:46:40.228Z,3.83
2018-07-16T01:49:08.456Z,3.43
2018-07-16T01:51:36.639Z,3.60
2018-07-16T01:54:04.838Z,3.50
2018-07-16T01:56:33.029Z,3.77
2018-07-16T01:59:01.234Z,3.63
2018-07-16T02:01:29.429Z,3.70
2018-07-16T02:03:57.627Z,4.10
2018-07-16T02:06:25.814Z,3.67
2018-07-16T02:08:54.022Z,3.87
2018-07-16T02:11:22.236Z,3.90
2018-07-16T02:13:50.445Z,3.70
2018-07-16T02:16:18.933Z,3.83
2018-07-16T02:18:47.125Z,4.07
2018-07-16T02:21:15.339Z,4.10
2018-07-16T02:23:43.501Z,3.87
2018-07-16T02:26:11.701Z,3.50
2018-07-16T02:28:39.905Z,4.07
2018-07-16T02:31:08.077Z,3.67
2018-07-16T02:33:36.289Z,3.83
2018-07-16T02:36:04.515Z,3.67
2018-07-16T02:38:32.691Z,3.90
2018-07-16T02:41:00.896Z,4.13
2018-07-16T02:43:29.088Z,4.07
2018-07-16T02:45:57.035Z,4.13
2018-07-16T02:48:25.219Z,3.67
2018-07-16T02:50:53.415Z,3.90
2018-07-16T02:53:21.627Z,3.70
2018-07-16T02:55:49.830Z,4.17
2018-07-16T02:58:18.058Z,3.83
2018-07-16T03:00:46.268Z,4.10
2018-07-16T03:03:14.488Z,3.57
2018-07-16T03:05:42.687Z,3.87
2018-07-16T03:08:10.965Z,3.90
2018-07-16T03:10:39.152Z,3.93
2018-07-16T03:13:07.334Z,3.87
2018-07-16T03:15:35.548Z,4.30
2018-07-16T03:18:03.780Z,4.40
2018-07-16T03:20:31.955Z,4.63
2018-07-16T03:23:00.147Z,4.30
2018-07-16T03:25:28.118Z,4.43
2018-07-16T03:27:56.308Z,3.77
2018-07-16T03:30:24.537Z,3.80
2018-07-16T03:32:52.789Z,3.73
2018-07-16T03:35:20.994Z,3.83
2018-07-16T03:37:49.819Z,4.13
2018-07-16T03:40:18.047Z,4.03
2018-07-16T03:42:46.270Z,3.77
2018-07-16T03:45:14.563Z,3.90
2018-07-16T03:47:42.765Z,3.90
2018-07-16T03:50:10.999Z,4.13
2018-07-16T03:52:39.240Z,3.93
2018-07-16T03:55:07.577Z,3.87
2018-07-16T03:57:35.776Z,4.23
2018-07-16T04:00:04.001Z,4.00
2018-07-16T04:02:32.237Z,4.40
2018-07-16T04:05:00.460Z,4.10
2018-07-16T04:07:28.701Z,4.00
2018-07-16T04:09:56.916Z,4.10
2018-07-16T04:12:25.116Z,4.27
2018-07-16T04:14:53.315Z,4.33
2018-07-16T04:17:21.540Z,4.20
2018-07-16T04:19:49.756Z,3.87
2018-07-16T04:22:17.949Z,3.97
2018-07-16T04:24:46.496Z,3.73
2018-07-16T04:27:14.761Z,3.90
2018-07-16T04:29:42.972Z,4.20
2018-07-16T04:32:11.192Z,4.20
2018-07-16T04:34:39.393Z,3.90
2018-07-16T04:37:07.621Z,3.93
2018-07-16T04:39:35.828Z,3.83
2018-07-16T04:42:04.047Z,4.13
2018-07-16T04:44:32.284Z,4.57
2018-07-16T04:47:00.474Z,4.10
2018-07-16T04:49:28.718Z,4.50
2018-07-16T04:51:56.900Z,4.07
2018-07-16T04:54:25.453Z,4.27
2018-07-16T04:56:53.675Z,4.10
2018-07-16T04:59:22.068Z,4.50
2018-07-16T05:01:50.302Z,4.57
2018-07-16T05:04:18.589Z,4.37
2018-07-16T05:06:46.778Z,4.60
2018-07-16T05:09:14.989Z,4.63
2018-07-16T05:11:43.242Z,4.67
2018-07-16T05:14:11.471Z,4.80
2018-07-16T05:16:39.660Z,5.30
2018-07-16T05:19:07.865Z,4.93
2018-07-16T05:21:36.032Z,5.43
2018-07-16T05:24:04.266Z,5.00
2018-07-16T05:26:32.372Z,5.10
2018-07-16T05:29:00.554Z,4.90
2018-07-16T05:31:28.782Z,5.10
2018-07-16T05:33:56.941Z,5.23
2018-07-16T05:36:25.112Z,4.87
2018-07-16T05:38:53.305Z,5.10
2018-07-16T05:41:21.467Z,5.07
2018-07-16T05:43:49.628Z,5.77
2018-07-16T05:46:17.800Z,4.87
2018-07-16T05:48:45.963Z,6.10
2018-07-16T05:51:14.137Z,5.33
2018-07-16T05:53:42.306Z,5.47
2018-07-16T05:56:10.461Z,5.40
2018-07-16T05:58:38.632Z,5.23
2018-07-16T06:01:06.957Z,5.63
2018-07-16T06:03:35.113Z,5.43
2018-07-16T06:06:04.239Z,5.53
2018-07-16T06:08:32.612Z,5.20
2018-07-16T06:11:02.982Z,5.30
2018-07-16T06:13:31.398Z,5.10
2018-07-16T06:15:59.654Z,5.20
2018-07-16T06:18:27.876Z,4.77
2018-07-16T06:20:56.148Z,4.63
2018-07-16T06:23:24.369Z,4.87
2018-07-16T06:25:52.564Z,5.37
2018-07-16T06:28:20.932Z,4.97
2018-07-16T06:30:49.189Z,4.83
2018-07-16T06:33:17.428Z,4.70
2018-07-16T06:35:45.689Z,4.57
2018-07-16T06:38:14.267Z,4.53
2018-07-16T06:40:42.747Z,4.17
2018-07-16T06:43:10.907Z,4.00
2018-07-16T06:45:39.227Z,4.20
2018-07-16T06:48:07.570Z,4.33
2018-07-16T06:50:37.898Z,4.43
2018-07-16T06:53:06.200Z,3.70
2018-07-16T06:55:34.444Z,4.23
2018-07-16T06:58:02.843Z,4.00
2018-07-16T07:00:34.239Z,3.73
2018-07-16T07:03:02.693Z,3.43
2018-07-16T07:05:30.931Z,3.77
2018-07-16T07:07:59.442Z,3.10
2018-07-16T07:10:28.081Z,3.30
2018-07-16T07:12:56.326Z,3.67
2018-07-16T07:15:24.677Z,3.80
2018-07-16T07:17:52.967Z,3.50
2018-07-16T07:20:21.225Z,3.37
2018-07-16T07:22:49.534Z,3.30
2018-07-16T07:25:18.157Z,3.47
2018-07-16T07:27:46.695Z,3.20
2018-07-16T07:30:14.995Z,3.90
2018-07-16T07:32:43.290Z,3.57
2018-07-16T07:35:11.522Z,3.20
2018-07-16T07:37:39.788Z,3.70
2018-07-16T07:40:10.105Z,3.27
2018-07-16T07:42:38.394Z,2.97
2018-07-16T07:45:06.706Z,3.70
2018-07-16T07:47:37.334Z,2.90
2018-07-16T07:50:05.559Z,2.83
2018-07-16T07:52:33.764Z,2.90
2018-07-16T07:55:04.366Z,2.67
2018-07-16T07:57:32.976Z,2.90
2018-07-16T08:00:01.277Z,2.93
2018-07-16T08:02:29.588Z,3.13
2018-07-16T08:04:57.821Z,2.60
2018-07-16T08:07:26.122Z,2.50
2018-07-16T08:09:54.528Z,2.43
2018-07-16T08:12:22.899Z,2.30
2018-07-16T08:14:51.173Z,2.60
2018-07-16T08:17:19.421Z,2.47
2018-07-16T08:19:47.642Z,2.30
2018-07-16T08:22:15.832Z,2.70
2018-07-16T08:24:44.081Z,2.40
2018-07-16T08:27:12.304Z,2.30
2018-07-16T08:29:40.518Z,2.60
2018-07-16T08:32:08.741Z,2.20
2018-07-16T08:34:36.986Z,2.40
2018-07-16T08:37:05.190Z,2.58
2018-07-16T08:39:33.395Z,2.30
2018-07-16T08:42:01.637Z,2.30
2018-07-16T08:44:29.881Z,2.42
2018-07-16T08:46:58.093Z,2.05
2018-07-16T08:49:26.046Z,2.37
2018-07-16T08:51:54.934Z,2.58
2018-07-16T08:54:23.143Z,2.50
2018-07-16T08:56:51.375Z,2.47
2018-07-16T08:59:19.720Z,2.30
2018-07-16T09:01:47.783Z,2.70
2018-07-16T09:04:16.406Z,3.40
2018-07-16T09:06:44.641Z,3.22
2018-07-16T09:09:12.850Z,2.77
2018-07-16T09:11:41.034Z,2.42
2018-07-16T09:14:09.269Z,2.20
2018-07-16T09:16:37.465Z,2.70
2018-07-16T09:19:08.028Z,2.50
2018-07-16T09:21:36.260Z,2.15
2018-07-16T09:24:04.461Z,2.20
2018-07-16T09:26:32.768Z,2.12
2018-07-16T09:29:00.969Z,2.22
2018-07-16T09:31:29.172Z,1.70
2018-07-16T09:33:57.471Z,1.50
2018-07-16T09:36:25.716Z,2.08
2018-07-16T09:38:54.192Z,2.15
2018-07-16T09:41:22.359Z,2.25
2018-07-16T09:43:50.580Z,2.05
2018-07-16T09:46:18.813Z,2.15
2018-07-16T09:48:47.043Z,1.87
2018-07-16T09:51:15.962Z,1.92
2018-07-16T09:53:44.157Z,2.00
2018-07-16T09:56:12.468Z,2.00
2018-07-16T09:58:40.589Z,1.90
2018-07-16T10:01:14.158Z,1.87
2018-07-16T10:03:42.396Z,1.70
2018-07-16T10:06:10.646Z,1.95
2018-07-16T10:08:38.870Z,1.92
2018-07-16T10:11:07.069Z,2.00
2018-07-16T10:13:35.282Z,2.10
2018-07-16T10:16:03.514Z,2.30
2018-07-16T10:18:31.753Z,1.85
2018-07-16T10:20:59.994Z,2.00
2018-07-16T10:23:28.217Z,2.12
2018-07-16T10:25:56.555Z,3.80
2018-07-16T10:28:24.649Z,3.25
2018-07-16T10:30:52.920Z,1.70
2018-07-16T10:33:21.097Z,3.70
2018-07-16T10:35:49.319Z,1.57
2018-07-16T10:38:17.546Z,1.57
2018-07-16T10:40:45.842Z,1.62
2018-07-16T10:43:14.101Z,1.92
2018-07-16T10:45:42.382Z,1.70
2018-07-16T10:48:10.584Z,1.80
2018-07-16T10:50:38.780Z,1.60
2018-07-16T10:53:07.001Z,1.50
2018-07-16T10:55:35.258Z,1.80
2018-07-16T10:58:03.457Z,1.67
2018-07-16T11:00:31.708Z,1.95
2018-07-16T11:02:59.983Z,1.52
2018-07-16T11:05:28.274Z,1.30
2018-07-16T11:07:56.401Z,1.40
2018-07-16T11:10:24.573Z,1.30
2018-07-16T11:12:52.845Z,1.30
2018-07-16T11:15:21.094Z,1.20
2018-07-16T11:17:49.333Z,1.20
2018-07-16T11:20:18.171Z,1.10
2018-07-16T11:22:46.560Z,1.10
2018-07-16T11:25:14.796Z,1.20
2018-07-16T11:27:43.023Z,1.30
2018-07-16T11:30:11.290Z,1.50
2018-07-16T11:32:39.506Z,1.60
2018-07-16T11:35:07.825Z,1.30
2018-07-16T11:37:36.076Z,1.20
2018-07-16T11:40:04.416Z,1.32
2018-07-16T11:42:32.415Z,1.25
2018-07-16T11:45:00.629Z,1.42
2018-07-16T11:47:28.989Z,1.50
2018-07-16T11:49:57.368Z,1.70
2018-07-16T11:52:25.694Z,1.40
2018-07-16T11:54:53.969Z,1.40
2018-07-16T11:57:22.238Z,1.20
2018-07-16T11:59:50.430Z,1.45
2018-07-16T12:02:18.702Z,1.50
2018-07-16T12:04:46.968Z,1.47
2018-07-16T12:07:15.234Z,1.65
2018-07-16T12:09:43.433Z,1.52
2018-07-16T12:12:11.778Z,1.25
2018-07-16T12:14:39.978Z,1.40
2018-07-16T12:17:08.229Z,1.50
2018-07-16T12:19:36.455Z,1.47
2018-07-16T12:22:04.650Z,1.27
2018-07-16T12:24:32.928Z,1.35
2018-07-16T12:27:01.192Z,1.20
2018-07-16T12:29:29.403Z,1.17
2018-07-16T12:31:57.689Z,1.37
2018-07-16T12:34:26.078Z,1.80
2018-07-16T12:36:54.482Z,1.62
2018-07-16T12:39:22.735Z,1.45
2018-07-16T12:41:51.160Z,1.50
2018-07-16T12:44:19.610Z,1.55
2018-07-16T12:46:47.858Z,1.50
2018-07-16T12:49:16.030Z,1.52
2018-07-16T12:51:44.258Z,1.27
2018-07-16T12:54:12.579Z,1.07
2018-07-16T12:56:42.334Z,1.40
2018-07-16T12:59:10.524Z,1.15
2018-07-16T13:01:38.752Z,1.50
2018-07-16T13:04:06.959Z,1.17
2018-07-16T13:06:35.161Z,1.20
2018-07-16T13:09:04.096Z,1.50
2018-07-16T13:11:32.348Z,1.40
2018-07-16T13:14:00.567Z,1.65
2018-07-16T13:16:28.887Z,1.10
2018-07-16T13:18:57.106Z,1.52
2018-07-16T13:21:25.309Z,1.62
2018-07-16T13:23:53.516Z,1.35
2018-07-16T13:26:21.756Z,1.25
2018-07-16T13:28:49.981Z,1.42
2018-07-16T13:31:18.337Z,1.30
2018-07-16T13:33:46.608Z,1.40
2018-07-16T13:36:14.898Z,0.93
2018-07-16T13:38:43.100Z,1.27
2018-07-16T13:41:11.357Z,1.07
2018-07-16T13:43:39.690Z,1.10
2018-07-16T13:46:08.156Z,2.02
2018-07-16T13:48:36.332Z,3.30
2018-07-16T13:51:04.486Z,2.35
2018-07-16T13:53:33.324Z,2.12
2018-07-16T13:56:01.516Z,2.52
2018-07-16T13:58:31.606Z,1.17
2018-07-16T14:01:00.142Z,1.17
2018-07-16T14:03:28.686Z,1.27
2018-07-16T14:05:56.920Z,1.47
2018-07-16T14:08:25.170Z,1.27
2018-07-16T14:10:53.402Z,1.50
2018-07-16T14:13:21.636Z,1.80
2018-07-16T14:15:49.872Z,1.45
2018-07-16T14:18:18.108Z,1.30
2018-07-16T14:20:46.469Z,1.62
2018-07-16T14:23:14.782Z,1.70
2018-07-16T14:25:43.227Z,1.50
2018-07-16T14:28:11.595Z,1.62
2018-07-16T14:30:39.831Z,1.50
2018-07-16T14:33:08.360Z,1.40
2018-07-16T14:35:36.711Z,1.20
2018-07-16T14:38:04.996Z,1.40
2018-07-16T14:40:33.217Z,1.30
2018-07-16T14:43:01.646Z,1.30
2018-07-16T14:45:29.892Z,1.50
2018-07-16T14:47:58.148Z,1.20
2018-07-16T14:50:28.453Z,1.42
2018-07-16T14:52:56.781Z,1.10
2018-07-16T14:55:25.941Z,1.32
2018-07-16T14:57:54.172Z,1.40
2018-07-16T15:00:23.392Z,2.22
2018-07-16T15:02:51.628Z,2.40
2018-07-16T15:05:21.254Z,1.25
2018-07-16T15:07:49.444Z,1.27
2018-07-16T15:10:17.703Z,1.37
2018-07-16T15:12:45.929Z,1.22
2018-07-16T15:15:14.220Z,1.40
2018-07-16T15:17:42.942Z,1.20
2018-07-16T15:20:11.235Z,1.27
2018-07-16T15:22:39.378Z,0.95
2018-07-16T15:25:10.616Z,1.10
2018-07-16T15:27:38.883Z,1.17
2018-07-16T15:30:08.291Z,1.37
2018-07-16T15:32:36.516Z,1.50
2018-07-16T15:35:04.885Z,1.42
2018-07-16T15:37:33.254Z,1.40
2018-07-16T15:40:01.829Z,1.40
2018-07-16T15:42:32.838Z,1.20
2018-07-16T15:45:01.071Z,1.30
2018-07-16T15:47:29.267Z,1.12
2018-07-16T15:49:57.533Z,1.12
2018-07-16T15:52:25.724Z,1.10
2018-07-16T15:54:53.949Z,1.02
2018-07-16T15:57:22.205Z,1.17
2018-07-16T15:59:50.378Z,1.05
2018-07-16T16:02:18.561Z,1.07
2018-07-16T16:04:46.745Z,0.70
2018-07-16T16:07:14.947Z,1.17
2018-07-16T16:09:43.148Z,1.25
2018-07-16T16:12:12.300Z,1.52
2018-07-16T16:14:40.515Z,1.35
2018-07-16T16:17:08.458Z,1.40
2018-07-16T16:19:36.678Z,1.40
2018-07-16T16:22:08.379Z,1.50
2018-07-16T16:24:36.733Z,1.50
2018-07-16T16:27:05.153Z,1.30
2018-07-16T16:29:33.432Z,1.37
2018-07-16T16:32:01.691Z,1.45
2018-07-16T16:34:29.918Z,1.50
2018-07-16T16:36:58.129Z,1.67
2018-07-16T16:39:27.426Z,1.42
2018-07-16T16:41:55.749Z,1.47
2018-07-16T16:44:23.860Z,1.50
2018-07-16T16:46:52.061Z,1.50
2018-07-16T16:49:20.016Z,1.67
2018-07-16T16:51:54.731Z,1.77
2018-07-16T16:54:22.938Z,1.80
2018-07-16T16:56:51.166Z,2.20
2018-07-16T16:59:19.572Z,6.43
2018-07-16T17:01:47.758Z,7.73
2018-07-16T17:04:15.949Z,10.90
2018-07-16T17:06:44.152Z,10.37
2018-07-16T17:09:12.328Z,8.13
2018-07-16T17:11:40.499Z,8.03
2018-07-16T17:14:08.729Z,7.67
2018-07-16T17:16:36.912Z,6.33
2018-07-16T17:19:07.739Z,5.30
2018-07-16T17:21:35.932Z,5.43
2018-07-16T17:24:04.151Z,4.90
2018-07-16T17:26:32.556Z,4.37
2018-07-16T17:29:00.764Z,5.80
2018-07-16T17:31:28.932Z,3.60
2018-07-16T17:33:57.140Z,3.37
2018-07-16T17:36:25.936Z,3.50
2018-07-16T17:38:54.144Z,3.70
2018-07-16T17:41:22.320Z,3.00
2018-07-16T17:43:50.520Z,3.20
2018-07-16T17:46:18.704Z,3.13
2018-07-16T17:48:46.881Z,2.57
2018-07-16T17:51:15.088Z,2.97
2018-07-16T17:53:43.308Z,2.20
2018-07-16T17:56:11.499Z,2.50
2018-07-16T17:58:39.708Z,2.70
2018-07-16T18:01:07.845Z,1.90
2018-07-16T18:03:36.000Z,1.63
2018-07-16T18:06:04.156Z,2.20
2018-07-16T18:08:32.332Z,2.10
2018-07-16T18:11:00.500Z,1.70
2018-07-16T18:13:28.640Z,1.63
2018-07-16T18:15:56.824Z,1.87
2018-07-16T18:18:24.996Z,1.90
2018-07-16T18:20:53.159Z,1.90
2018-07-16T18:23:21.320Z,1.80
2018-07-16T18:25:49.485Z,1.70
2018-07-16T18:28:17.635Z,1.60
2018-07-16T18:30:45.800Z,1.97
2018-07-16T18:33:13.944Z,2.03
2018-07-16T18:35:42.097Z,1.97
2018-07-16T18:38:10.366Z,1.40
2018-07-16T18:40:38.514Z,1.90
2018-07-16T18:43:06.909Z,1.77
2018-07-16T18:45:35.757Z,1.70
2018-07-16T18:48:04.044Z,1.60
2018-07-16T18:50:32.189Z,1.60
2018-07-16T18:53:00.474Z,1.70
2018-07-16T18:55:28.671Z,1.70
2018-07-16T18:57:56.808Z,1.80
2018-07-16T19:00:24.960Z,1.53
2018-07-16T19:02:53.173Z,1.83
2018-07-16T19:05:21.263Z,1.83
2018-07-16T19:07:49.612Z,1.90
2018-07-16T19:10:19.136Z,1.77
2018-07-16T19:12:47.394Z,1.73
2018-07-16T19:17:58.014Z,1.83
2018-07-16T19:20:26.861Z,1.90
2018-07-16T19:22:55.240Z,2.03
2018-07-16T19:25:23.559Z,1.90
2018-07-16T19:27:51.766Z,1.87
2018-07-16T19:30:19.996Z,2.00
2018-07-16T19:32:48.273Z,1.93
2018-07-16T19:35:16.481Z,1.93
2018-07-16T19:37:44.720Z,1.67
2018-07-16T19:40:12.939Z,2.10
2018-07-16T19:42:41.353Z,2.10
2018-07-16T19:45:09.680Z,2.47
2018-07-16T19:47:37.822Z,2.43
2018-07-16T19:50:06.784Z,2.10
2018-07-16T19:52:35.069Z,2.00
2018-07-16T19:55:03.459Z,1.90
2018-07-16T19:57:31.597Z,2.30
2018-07-16T19:59:59.807Z,2.50
2018-07-16T20:02:28.084Z,2.27
2018-07-16T20:04:56.308Z,2.30
2018-07-16T20:07:24.653Z,2.30
2018-07-16T20:09:53.909Z,1.97
2018-07-16T20:12:38.120Z,2.30
2018-07-16T20:15:09.525Z,2.20
2018-07-16T20:17:37.688Z,2.07
2018-07-16T20:20:07.699Z,2.20
2018-07-16T20:22:35.945Z,2.10
2018-07-16T20:25:05.286Z,2.10
2018-07-16T20:27:33.592Z,2.40
2018-07-16T20:30:01.868Z,2.43
2018-07-16T20:32:30.176Z,2.30
2018-07-16T20:34:58.876Z,2.40
2018-07-16T20:37:27.184Z,2.40
2018-07-16T20:39:55.397Z,2.50
2018-07-16T20:42:23.695Z,2.37
2018-07-16T20:44:51.952Z,2.33
2018-07-16T20:47:20.161Z,2.33
2018-07-16T20:49:48.359Z,2.30
2018-07-16T20:52:17.395Z,2.27
2018-07-16T20:54:45.617Z,2.80
2018-07-16T20:57:13.830Z,2.67
2018-07-16T20:59:42.045Z,2.43
2018-07-16T21:02:10.291Z,2.50
2018-07-16T21:04:38.563Z,2.47
2018-07-16T21:07:06.803Z,2.50
2018-07-16T21:09:35.074Z,2.37
2018-07-16T21:12:03.276Z,2.50
2018-07-16T21:14:31.509Z,2.40
2018-07-16T21:16:59.797Z,2.57
2018-07-16T21:19:28.029Z,2.70
2018-07-16T21:21:56.228Z,2.77
2018-07-16T21:24:24.663Z,2.47
2018-07-16T21:26:52.920Z,2.40
2018-07-16T21:29:21.334Z,2.63
2018-07-16T21:31:49.613Z,3.17
2018-07-16T21:34:17.810Z,2.70
2018-07-16T21:36:46.053Z,2.90
2018-07-16T21:39:14.332Z,2.50
2018-07-16T21:41:42.563Z,2.90
2018-07-16T21:44:10.513Z,2.57
2018-07-16T21:46:38.733Z,2.70
2018-07-16T21:49:06.954Z,3.13
2018-07-16T21:51:35.167Z,2.70
2018-07-16T21:54:03.413Z,3.00
2018-07-16T21:56:31.687Z,2.80
2018-07-16T21:58:59.883Z,2.70
2018-07-16T22:01:28.073Z,2.67
2018-07-16T22:03:56.768Z,2.90
2018-07-16T22:06:24.900Z,2.97
2018-07-16T22:08:53.166Z,2.90
2018-07-16T22:11:22.002Z,2.83
2018-07-16T22:13:50.265Z,3.20
2018-07-16T22:16:19.739Z,2.90
2018-07-16T22:18:48.622Z,3.03
2018-07-16T22:21:18.857Z,2.83
2018-07-16T22:23:47.424Z,3.20
2018-07-16T22:26:19.047Z,3.40
2018-07-16T22:28:48.252Z,3.30
2018-07-16T22:31:16.467Z,3.27
2018-07-16T22:33:45.190Z,3.43
2018-07-16T22:36:13.441Z,3.07
2018-07-16T22:38:41.389Z,3.00
2018-07-16T22:41:09.683Z,3.10
2018-07-16T22:43:37.979Z,2.83
2018-07-16T22:46:06.813Z,3.10
2018-07-16T22:48:35.172Z,3.07
2018-07-16T22:51:03.591Z,3.07
2018-07-16T22:53:32.514Z,3.13
2018-07-16T22:56:01.113Z,3.47
2018-07-16T22:58:29.360Z,2.93
2018-07-16T23:00:57.606Z,3.20
2018-07-16T23:03:25.820Z,3.07
2018-07-16T23:05:54.029Z,3.33
2018-07-16T23:08:22.222Z,2.97
2018-07-16T23:10:50.504Z,3.30
2018-07-16T23:13:18.986Z,3.50
2018-07-16T23:15:47.224Z,3.63
2018-07-16T23:18:15.454Z,3.47
2018-07-16T23:20:43.666Z,3.90
2018-07-16T23:23:11.862Z,3.50
2018-07-16T23:25:40.273Z,3.70
2018-07-16T23:28:08.524Z,2.90
2018-07-16T23:30:37.658Z,3.77
2018-07-16T23:33:05.888Z,3.30
2018-07-16T23:35:34.085Z,3.30
2018-07-16T23:38:02.300Z,3.37
2018-07-16T23:40:30.532Z,3.97
2018-07-16T23:42:58.734Z,3.70
2018-07-16T23:45:27.220Z,3.87
2018-07-16T23:47:55.421Z,3.70
2018-07-16T23:50:23.730Z,3.83
2018-07-16T23:52:51.853Z,3.77
2018-07-16T23:55:20.059Z,3.90
2018-07-16T23:57:48.390Z,3.90
